sensor_id;sensor_type;location;lat;lon;timestamp;P1;durP1;ratioP1;P2;durP2;ratioP2
2404;SDS011;1213;43.206;27.922;2022-10-31T00:01:51;13.23;;;8.43;;
2404;SDS011;1213;43.206;27.922;2022-10-31T00:04:16;7.83;;;6.87;;
2404;SDS011;1213;43.206;27.922;2022-10-31T00:06:42;11.53;;;7.30;;
2404;SDS011;1213;43.206;27.922;2022-10-31T00:09:08;11.57;;;8.17;;
2404;SDS011;1213;43.206;27.922;2022-10-31T00:11:34;12.17;;;7.27;;
2404;SDS011;1213;43.206;27.922;2022-10-31T00:13:59;11.40;;;8.60;;
2404;SDS011;1213;43.206;27.922;2022-10-31T00:16:25;10.13;;;6.53;;
2404;SDS011;1213;43.206;27.922;2022-10-31T00:18:51;10.23;;;7.47;;
2404;SDS011;1213;43.206;27.922;2022-10-31T00:21:17;12.77;;;8.10;;
2404;SDS011;1213;43.206;27.922;2022-10-31T00:23:42;13.80;;;8.53;;
2404;SDS011;1213;43.206;27.922;2022-10-31T00:26:08;13.60;;;8.23;;
2404;SDS011;1213;43.206;27.922;2022-10-31T00:28:33;13.03;;;8.27;;
2404;SDS011;1213;43.206;27.922;2022-10-31T00:31:03;15.37;;;8.23;;
2404;SDS011;1213;43.206;27.922;2022-10-31T00:33:28;17.83;;;9.60;;
2404;SDS011;1213;43.206;27.922;2022-10-31T00:35:54;13.40;;;8.97;;
2404;SDS011;1213;43.206;27.922;2022-10-31T00:38:20;12.10;;;9.47;;
2404;SDS011;1213;43.206;27.922;2022-10-31T00:40:45;11.83;;;8.20;;
2404;SDS011;1213;43.206;27.922;2022-10-31T00:43:10;9.63;;;8.00;;
2404;SDS011;1213;43.206;27.922;2022-10-31T00:45:35;13.13;;;9.90;;
2404;SDS011;1213;43.206;27.922;2022-10-31T00:48:01;12.17;;;9.10;;
2404;SDS011;1213;43.206;27.922;2022-10-31T00:50:26;12.40;;;7.43;;
2404;SDS011;1213;43.206;27.922;2022-10-31T00:52:51;9.70;;;6.97;;
2404;SDS011;1213;43.206;27.922;2022-10-31T00:55:17;11.30;;;8.97;;
2404;SDS011;1213;43.206;27.922;2022-10-31T00:57:42;15.60;;;8.67;;
2404;SDS011;1213;43.206;27.922;2022-10-31T01:00:07;12.73;;;8.90;;
2404;SDS011;1213;43.206;27.922;2022-10-31T01:02:33;12.50;;;8.30;;
2404;SDS011;1213;43.206;27.922;2022-10-31T01:04:58;17.20;;;8.23;;
2404;SDS011;1213;43.206;27.922;2022-10-31T01:07:23;15.17;;;9.50;;
2404;SDS011;1213;43.206;27.922;2022-10-31T01:09:48;12.20;;;9.07;;
2404;SDS011;1213;43.206;27.922;2022-10-31T01:12:14;13.60;;;8.60;;
2404;SDS011;1213;43.206;27.922;2022-10-31T01:14:42;14.00;;;9.37;;
2404;SDS011;1213;43.206;27.922;2022-10-31T01:17:07;9.70;;;7.80;;
2404;SDS011;1213;43.206;27.922;2022-10-31T01:19:33;20.97;;;8.57;;
2404;SDS011;1213;43.206;27.922;2022-10-31T01:21:58;11.47;;;7.23;;
2404;SDS011;1213;43.206;27.922;2022-10-31T01:24:23;16.23;;;10.20;;
2404;SDS011;1213;43.206;27.922;2022-10-31T01:26:48;11.97;;;8.57;;
2404;SDS011;1213;43.206;27.922;2022-10-31T01:29:14;12.70;;;8.37;;
2404;SDS011;1213;43.206;27.922;2022-10-31T01:31:39;12.73;;;8.73;;
2404;SDS011;1213;43.206;27.922;2022-10-31T01:34:05;13.83;;;8.10;;
2404;SDS011;1213;43.206;27.922;2022-10-31T01:36:32;19.43;;;9.10;;
2404;SDS011;1213;43.206;27.922;2022-10-31T01:38:59;13.13;;;8.87;;
2404;SDS011;1213;43.206;27.922;2022-10-31T01:41:26;11.90;;;8.73;;
2404;SDS011;1213;43.206;27.922;2022-10-31T01:43:59;11.50;;;9.00;;
2404;SDS011;1213;43.206;27.922;2022-10-31T01:48:53;13.97;;;9.50;;
2404;SDS011;1213;43.206;27.922;2022-10-31T01:51:20;14.93;;;8.30;;
2404;SDS011;1213;43.206;27.922;2022-10-31T01:53:47;13.27;;;9.77;;
2404;SDS011;1213;43.206;27.922;2022-10-31T01:56:13;13.63;;;8.90;;
2404;SDS011;1213;43.206;27.922;2022-10-31T01:58:40;9.50;;;8.33;;
2404;SDS011;1213;43.206;27.922;2022-10-31T02:01:05;13.70;;;7.67;;
2404;SDS011;1213;43.206;27.922;2022-10-31T02:03:30;9.53;;;8.10;;
2404;SDS011;1213;43.206;27.922;2022-10-31T02:05:56;15.80;;;10.30;;
2404;SDS011;1213;43.206;27.922;2022-10-31T02:10:50;15.40;;;8.63;;
2404;SDS011;1213;43.206;27.922;2022-10-31T02:13:16;11.83;;;8.27;;
2404;SDS011;1213;43.206;27.922;2022-10-31T02:15:42;11.00;;;7.67;;
2404;SDS011;1213;43.206;27.922;2022-10-31T02:18:08;12.93;;;9.03;;
2404;SDS011;1213;43.206;27.922;2022-10-31T02:28:50;13.87;;;9.20;;
2404;SDS011;1213;43.206;27.922;2022-10-31T02:32:02;8.27;;;7.20;;
2404;SDS011;1213;43.206;27.922;2022-10-31T02:36:52;11.87;;;7.60;;
2404;SDS011;1213;43.206;27.922;2022-10-31T02:42:15;16.20;;;8.50;;
2404;SDS011;1213;43.206;27.922;2022-10-31T02:44:49;10.87;;;8.37;;
2404;SDS011;1213;43.206;27.922;2022-10-31T02:47:17;14.77;;;9.37;;
2404;SDS011;1213;43.206;27.922;2022-10-31T02:49:45;11.37;;;8.60;;
2404;SDS011;1213;43.206;27.922;2022-10-31T02:52:17;8.83;;;7.87;;
2404;SDS011;1213;43.206;27.922;2022-10-31T02:54:43;15.00;;;8.70;;
2404;SDS011;1213;43.206;27.922;2022-10-31T02:57:09;21.00;;;10.97;;
2404;SDS011;1213;43.206;27.922;2022-10-31T02:59:35;13.90;;;8.20;;
2404;SDS011;1213;43.206;27.922;2022-10-31T03:11:58;18.10;;;10.23;;
2404;SDS011;1213;43.206;27.922;2022-10-31T03:17:21;18.73;;;9.20;;
2404;SDS011;1213;43.206;27.922;2022-10-31T03:19:48;15.33;;;10.20;;
2404;SDS011;1213;43.206;27.922;2022-10-31T03:22:17;16.10;;;10.17;;
2404;SDS011;1213;43.206;27.922;2022-10-31T03:24:44;14.63;;;10.70;;
2404;SDS011;1213;43.206;27.922;2022-10-31T03:27:11;16.60;;;11.33;;
2404;SDS011;1213;43.206;27.922;2022-10-31T03:29:37;17.40;;;9.13;;
2404;SDS011;1213;43.206;27.922;2022-10-31T03:34:29;16.20;;;11.60;;
2404;SDS011;1213;43.206;27.922;2022-10-31T03:36:56;18.93;;;11.60;;
2404;SDS011;1213;43.206;27.922;2022-10-31T03:39:22;14.70;;;9.53;;
2404;SDS011;1213;43.206;27.922;2022-10-31T03:42:02;16.00;;;9.90;;
2404;SDS011;1213;43.206;27.922;2022-10-31T03:44:30;20.20;;;12.43;;
2404;SDS011;1213;43.206;27.922;2022-10-31T03:46:55;27.40;;;11.70;;
2404;SDS011;1213;43.206;27.922;2022-10-31T03:49:21;23.07;;;11.90;;
2404;SDS011;1213;43.206;27.922;2022-10-31T03:51:48;13.50;;;8.70;;
2404;SDS011;1213;43.206;27.922;2022-10-31T03:56:45;10.77;;;9.13;;
2404;SDS011;1213;43.206;27.922;2022-10-31T03:59:15;11.90;;;7.60;;
2404;SDS011;1213;43.206;27.922;2022-10-31T04:01:43;19.43;;;8.67;;
2404;SDS011;1213;43.206;27.922;2022-10-31T04:04:09;16.40;;;8.93;;
2404;SDS011;1213;43.206;27.922;2022-10-31T04:06:36;18.80;;;9.40;;
2404;SDS011;1213;43.206;27.922;2022-10-31T04:09:03;12.67;;;8.57;;
2404;SDS011;1213;43.206;27.922;2022-10-31T04:11:30;12.63;;;9.17;;
2404;SDS011;1213;43.206;27.922;2022-10-31T04:13:56;14.43;;;7.20;;
2404;SDS011;1213;43.206;27.922;2022-10-31T04:16:23;11.90;;;8.90;;
2404;SDS011;1213;43.206;27.922;2022-10-31T04:18:49;11.90;;;8.50;;
2404;SDS011;1213;43.206;27.922;2022-10-31T04:21:14;23.90;;;7.67;;
2404;SDS011;1213;43.206;27.922;2022-10-31T04:23:39;23.10;;;8.13;;
2404;SDS011;1213;43.206;27.922;2022-10-31T04:26:05;12.90;;;8.00;;
2404;SDS011;1213;43.206;27.922;2022-10-31T04:28:30;18.40;;;8.30;;
2404;SDS011;1213;43.206;27.922;2022-10-31T04:30:56;11.83;;;8.53;;
2404;SDS011;1213;43.206;27.922;2022-10-31T04:33:21;8.30;;;7.00;;
2404;SDS011;1213;43.206;27.922;2022-10-31T04:35:46;12.57;;;7.57;;
2404;SDS011;1213;43.206;27.922;2022-10-31T04:38:12;9.63;;;7.60;;
2404;SDS011;1213;43.206;27.922;2022-10-31T04:40:37;19.77;;;7.87;;
2404;SDS011;1213;43.206;27.922;2022-10-31T04:43:02;17.93;;;9.10;;
2404;SDS011;1213;43.206;27.922;2022-10-31T04:45:28;11.97;;;8.53;;
2404;SDS011;1213;43.206;27.922;2022-10-31T04:47:53;13.80;;;8.20;;
2404;SDS011;1213;43.206;27.922;2022-10-31T04:50:18;18.97;;;9.10;;
2404;SDS011;1213;43.206;27.922;2022-10-31T04:52:44;13.53;;;9.37;;
2404;SDS011;1213;43.206;27.922;2022-10-31T04:55:10;12.30;;;7.37;;
2404;SDS011;1213;43.206;27.922;2022-10-31T04:57:45;28.77;;;10.10;;
2404;SDS011;1213;43.206;27.922;2022-10-31T05:00:11;18.93;;;9.60;;
2404;SDS011;1213;43.206;27.922;2022-10-31T05:02:46;15.90;;;9.00;;
2404;SDS011;1213;43.206;27.922;2022-10-31T05:05:12;14.87;;;10.63;;
2404;SDS011;1213;43.206;27.922;2022-10-31T05:07:38;14.07;;;10.20;;
2404;SDS011;1213;43.206;27.922;2022-10-31T05:10:04;18.83;;;9.70;;
2404;SDS011;1213;43.206;27.922;2022-10-31T05:12:30;23.50;;;10.30;;
2404;SDS011;1213;43.206;27.922;2022-10-31T05:14:55;25.60;;;8.47;;
2404;SDS011;1213;43.206;27.922;2022-10-31T05:17:20;22.10;;;10.80;;
2404;SDS011;1213;43.206;27.922;2022-10-31T05:19:45;14.47;;;9.97;;
2404;SDS011;1213;43.206;27.922;2022-10-31T05:22:11;19.40;;;11.30;;
2404;SDS011;1213;43.206;27.922;2022-10-31T05:24:37;18.30;;;11.27;;
2404;SDS011;1213;43.206;27.922;2022-10-31T05:27:02;17.97;;;10.23;;
2404;SDS011;1213;43.206;27.922;2022-10-31T05:29:27;18.70;;;10.70;;
2404;SDS011;1213;43.206;27.922;2022-10-31T05:31:53;14.43;;;10.67;;
2404;SDS011;1213;43.206;27.922;2022-10-31T05:34:18;15.50;;;10.50;;
2404;SDS011;1213;43.206;27.922;2022-10-31T05:36:44;16.70;;;11.60;;
2404;SDS011;1213;43.206;27.922;2022-10-31T05:39:09;28.33;;;10.67;;
2404;SDS011;1213;43.206;27.922;2022-10-31T05:41:34;16.33;;;10.40;;
2404;SDS011;1213;43.206;27.922;2022-10-31T05:43:59;20.23;;;11.37;;
2404;SDS011;1213;43.206;27.922;2022-10-31T05:46:25;16.00;;;10.67;;
2404;SDS011;1213;43.206;27.922;2022-10-31T05:48:50;14.77;;;10.40;;
2404;SDS011;1213;43.206;27.922;2022-10-31T05:51:15;14.20;;;8.93;;
2404;SDS011;1213;43.206;27.922;2022-10-31T05:53:40;12.57;;;9.13;;
2404;SDS011;1213;43.206;27.922;2022-10-31T05:56:06;13.00;;;10.20;;
2404;SDS011;1213;43.206;27.922;2022-10-31T05:58:31;20.83;;;11.70;;
2404;SDS011;1213;43.206;27.922;2022-10-31T06:00:56;21.30;;;10.93;;
2404;SDS011;1213;43.206;27.922;2022-10-31T06:03:22;18.13;;;11.57;;
2404;SDS011;1213;43.206;27.922;2022-10-31T06:05:47;19.83;;;11.60;;
2404;SDS011;1213;43.206;27.922;2022-10-31T06:08:12;12.67;;;9.03;;
2404;SDS011;1213;43.206;27.922;2022-10-31T06:10:37;14.57;;;8.77;;
2404;SDS011;1213;43.206;27.922;2022-10-31T06:13:03;14.90;;;9.17;;
2404;SDS011;1213;43.206;27.922;2022-10-31T06:15:28;10.53;;;8.17;;
2404;SDS011;1213;43.206;27.922;2022-10-31T06:17:57;14.93;;;8.87;;
2404;SDS011;1213;43.206;27.922;2022-10-31T06:20:23;12.97;;;9.17;;
2404;SDS011;1213;43.206;27.922;2022-10-31T06:22:48;14.73;;;8.17;;
2404;SDS011;1213;43.206;27.922;2022-10-31T06:25:14;10.40;;;7.53;;
2404;SDS011;1213;43.206;27.922;2022-10-31T06:27:39;16.70;;;8.83;;
2404;SDS011;1213;43.206;27.922;2022-10-31T06:30:05;11.77;;;8.60;;
2404;SDS011;1213;43.206;27.922;2022-10-31T06:32:30;17.60;;;8.33;;
2404;SDS011;1213;43.206;27.922;2022-10-31T06:34:55;18.40;;;9.03;;
2404;SDS011;1213;43.206;27.922;2022-10-31T06:37:21;11.60;;;9.00;;
2404;SDS011;1213;43.206;27.922;2022-10-31T06:39:46;12.87;;;8.03;;
2404;SDS011;1213;43.206;27.922;2022-10-31T06:42:12;12.97;;;9.10;;
2404;SDS011;1213;43.206;27.922;2022-10-31T06:44:38;16.10;;;9.57;;
2404;SDS011;1213;43.206;27.922;2022-10-31T06:47:05;15.33;;;8.73;;
2404;SDS011;1213;43.206;27.922;2022-10-31T06:49:30;15.43;;;10.90;;
2404;SDS011;1213;43.206;27.922;2022-10-31T06:51:55;11.77;;;8.90;;
2404;SDS011;1213;43.206;27.922;2022-10-31T06:54:20;13.73;;;10.23;;
2404;SDS011;1213;43.206;27.922;2022-10-31T06:56:46;16.63;;;9.87;;
2404;SDS011;1213;43.206;27.922;2022-10-31T06:59:12;17.20;;;12.23;;
2404;SDS011;1213;43.206;27.922;2022-10-31T07:01:37;14.30;;;9.33;;
2404;SDS011;1213;43.206;27.922;2022-10-31T07:04:02;18.87;;;10.70;;
2404;SDS011;1213;43.206;27.922;2022-10-31T07:06:28;17.40;;;10.10;;
2404;SDS011;1213;43.206;27.922;2022-10-31T07:08:54;12.70;;;9.90;;
2404;SDS011;1213;43.206;27.922;2022-10-31T07:11:19;20.63;;;9.40;;
2404;SDS011;1213;43.206;27.922;2022-10-31T07:13:44;17.57;;;10.03;;
2404;SDS011;1213;43.206;27.922;2022-10-31T07:16:09;15.27;;;8.57;;
2404;SDS011;1213;43.206;27.922;2022-10-31T07:18:38;11.50;;;7.90;;
2404;SDS011;1213;43.206;27.922;2022-10-31T07:21:04;9.97;;;7.20;;
2404;SDS011;1213;43.206;27.922;2022-10-31T07:23:29;13.87;;;7.50;;
2404;SDS011;1213;43.206;27.922;2022-10-31T07:25:55;17.63;;;8.83;;
2404;SDS011;1213;43.206;27.922;2022-10-31T07:28:21;10.70;;;7.90;;
2404;SDS011;1213;43.206;27.922;2022-10-31T07:30:49;12.83;;;7.63;;
2404;SDS011;1213;43.206;27.922;2022-10-31T07:33:15;10.00;;;7.67;;
2404;SDS011;1213;43.206;27.922;2022-10-31T07:35:40;10.37;;;7.13;;
2404;SDS011;1213;43.206;27.922;2022-10-31T07:38:09;8.97;;;7.47;;
2404;SDS011;1213;43.206;27.922;2022-10-31T07:40:35;14.67;;;9.10;;
2404;SDS011;1213;43.206;27.922;2022-10-31T07:43:00;18.27;;;9.40;;
2404;SDS011;1213;43.206;27.922;2022-10-31T07:45:25;11.47;;;8.77;;
2404;SDS011;1213;43.206;27.922;2022-10-31T07:47:51;12.80;;;8.43;;
2404;SDS011;1213;43.206;27.922;2022-10-31T07:50:18;14.90;;;8.70;;
2404;SDS011;1213;43.206;27.922;2022-10-31T07:52:44;13.47;;;8.87;;
2404;SDS011;1213;43.206;27.922;2022-10-31T07:55:09;20.93;;;9.77;;
2404;SDS011;1213;43.206;27.922;2022-10-31T07:57:34;13.87;;;8.67;;
2404;SDS011;1213;43.206;27.922;2022-10-31T08:00:02;10.90;;;7.77;;
2404;SDS011;1213;43.206;27.922;2022-10-31T08:02:27;14.63;;;9.60;;
2404;SDS011;1213;43.206;27.922;2022-10-31T08:04:52;12.07;;;9.10;;
2404;SDS011;1213;43.206;27.922;2022-10-31T08:07:18;18.47;;;9.30;;
2404;SDS011;1213;43.206;27.922;2022-10-31T08:09:43;12.13;;;8.77;;
2404;SDS011;1213;43.206;27.922;2022-10-31T08:12:08;13.90;;;8.60;;
2404;SDS011;1213;43.206;27.922;2022-10-31T08:14:34;12.70;;;9.47;;
2404;SDS011;1213;43.206;27.922;2022-10-31T08:16:59;13.00;;;8.33;;
2404;SDS011;1213;43.206;27.922;2022-10-31T08:19:24;13.50;;;8.90;;
2404;SDS011;1213;43.206;27.922;2022-10-31T08:21:52;14.70;;;11.70;;
2404;SDS011;1213;43.206;27.922;2022-10-31T08:24:20;14.20;;;7.87;;
2404;SDS011;1213;43.206;27.922;2022-10-31T08:26:45;15.67;;;9.07;;
2404;SDS011;1213;43.206;27.922;2022-10-31T08:29:10;15.40;;;11.90;;
2404;SDS011;1213;43.206;27.922;2022-10-31T08:31:35;14.07;;;8.20;;
2404;SDS011;1213;43.206;27.922;2022-10-31T08:34:01;12.33;;;7.90;;
2404;SDS011;1213;43.206;27.922;2022-10-31T08:36:26;10.77;;;7.63;;
2404;SDS011;1213;43.206;27.922;2022-10-31T08:38:52;15.97;;;9.43;;
2404;SDS011;1213;43.206;27.922;2022-10-31T08:41:17;12.80;;;8.50;;
2404;SDS011;1213;43.206;27.922;2022-10-31T08:43:42;12.57;;;8.97;;
2404;SDS011;1213;43.206;27.922;2022-10-31T08:46:07;17.33;;;8.90;;
2404;SDS011;1213;43.206;27.922;2022-10-31T08:48:33;12.40;;;9.80;;
2404;SDS011;1213;43.206;27.922;2022-10-31T08:50:58;18.13;;;9.60;;
2404;SDS011;1213;43.206;27.922;2022-10-31T08:53:24;14.43;;;10.60;;
2404;SDS011;1213;43.206;27.922;2022-10-31T08:55:50;10.30;;;7.47;;
2404;SDS011;1213;43.206;27.922;2022-10-31T08:58:16;14.13;;;8.50;;
2404;SDS011;1213;43.206;27.922;2022-10-31T09:00:42;13.87;;;8.07;;
2404;SDS011;1213;43.206;27.922;2022-10-31T09:03:14;12.83;;;7.73;;
2404;SDS011;1213;43.206;27.922;2022-10-31T09:05:40;12.27;;;7.87;;
2404;SDS011;1213;43.206;27.922;2022-10-31T09:08:06;13.57;;;8.13;;
2404;SDS011;1213;43.206;27.922;2022-10-31T09:10:32;14.67;;;9.67;;
2404;SDS011;1213;43.206;27.922;2022-10-31T09:12:59;18.00;;;9.60;;
2404;SDS011;1213;43.206;27.922;2022-10-31T09:15:25;9.23;;;7.47;;
2404;SDS011;1213;43.206;27.922;2022-10-31T09:17:50;12.57;;;8.67;;
2404;SDS011;1213;43.206;27.922;2022-10-31T09:20:16;8.13;;;7.00;;
2404;SDS011;1213;43.206;27.922;2022-10-31T09:22:41;14.23;;;7.33;;
2404;SDS011;1213;43.206;27.922;2022-10-31T09:25:08;14.73;;;7.37;;
2404;SDS011;1213;43.206;27.922;2022-10-31T09:27:33;9.23;;;6.53;;
2404;SDS011;1213;43.206;27.922;2022-10-31T09:29:58;12.00;;;6.87;;
2404;SDS011;1213;43.206;27.922;2022-10-31T09:32:24;9.50;;;6.70;;
2404;SDS011;1213;43.206;27.922;2022-10-31T09:34:49;8.73;;;5.77;;
2404;SDS011;1213;43.206;27.922;2022-10-31T09:37:14;10.23;;;6.53;;
2404;SDS011;1213;43.206;27.922;2022-10-31T09:39:39;11.63;;;6.97;;
2404;SDS011;1213;43.206;27.922;2022-10-31T09:42:24;15.13;;;8.20;;
2404;SDS011;1213;43.206;27.922;2022-10-31T09:52:32;10.90;;;6.60;;
2404;SDS011;1213;43.206;27.922;2022-10-31T09:57:36;6.10;;;5.30;;
2404;SDS011;1213;43.206;27.922;2022-10-31T10:00:05;15.57;;;6.30;;
2404;SDS011;1213;43.206;27.922;2022-10-31T10:02:43;8.10;;;5.60;;
2404;SDS011;1213;43.206;27.922;2022-10-31T10:05:10;8.67;;;5.83;;
2404;SDS011;1213;43.206;27.922;2022-10-31T10:10:13;6.97;;;4.60;;
2404;SDS011;1213;43.206;27.922;2022-10-31T10:12:57;5.67;;;4.53;;
2404;SDS011;1213;43.206;27.922;2022-10-31T10:30:23;5.97;;;4.00;;
2404;SDS011;1213;43.206;27.922;2022-10-31T10:32:57;8.37;;;4.17;;
2404;SDS011;1213;43.206;27.922;2022-10-31T10:35:36;6.60;;;4.83;;
2404;SDS011;1213;43.206;27.922;2022-10-31T10:40:47;12.37;;;6.03;;
2404;SDS011;1213;43.206;27.922;2022-10-31T10:43:19;6.30;;;4.47;;
2404;SDS011;1213;43.206;27.922;2022-10-31T10:45:49;4.90;;;4.40;;
2404;SDS011;1213;43.206;27.922;2022-10-31T10:48:43;5.13;;;4.73;;
2404;SDS011;1213;43.206;27.922;2022-10-31T10:51:20;8.30;;;4.80;;
2404;SDS011;1213;43.206;27.922;2022-10-31T10:58:59;5.83;;;4.67;;
2404;SDS011;1213;43.206;27.922;2022-10-31T11:01:25;7.40;;;4.60;;
2404;SDS011;1213;43.206;27.922;2022-10-31T11:03:50;7.60;;;4.50;;
2404;SDS011;1213;43.206;27.922;2022-10-31T11:06:18;4.97;;;4.40;;
2404;SDS011;1213;43.206;27.922;2022-10-31T11:08:47;6.40;;;4.80;;
2404;SDS011;1213;43.206;27.922;2022-10-31T11:13:59;5.17;;;4.67;;
2404;SDS011;1213;43.206;27.922;2022-10-31T11:18:50;4.33;;;3.87;;
2404;SDS011;1213;43.206;27.922;2022-10-31T11:21:28;7.17;;;4.90;;
2404;SDS011;1213;43.206;27.922;2022-10-31T11:26:34;5.23;;;4.73;;
2404;SDS011;1213;43.206;27.922;2022-10-31T11:29:00;6.83;;;4.70;;
2404;SDS011;1213;43.206;27.922;2022-10-31T11:31:28;5.47;;;4.60;;
2404;SDS011;1213;43.206;27.922;2022-10-31T11:34:00;7.37;;;4.47;;
2404;SDS011;1213;43.206;27.922;2022-10-31T11:36:28;5.20;;;4.10;;
2404;SDS011;1213;43.206;27.922;2022-10-31T11:38:54;7.33;;;4.70;;
2404;SDS011;1213;43.206;27.922;2022-10-31T11:41:23;6.07;;;5.10;;
2404;SDS011;1213;43.206;27.922;2022-10-31T11:43:57;5.00;;;4.10;;
2404;SDS011;1213;43.206;27.922;2022-10-31T11:46:44;6.30;;;4.97;;
2404;SDS011;1213;43.206;27.922;2022-10-31T11:49:15;5.13;;;4.53;;
2404;SDS011;1213;43.206;27.922;2022-10-31T11:51:42;5.70;;;4.10;;
2404;SDS011;1213;43.206;27.922;2022-10-31T11:54:14;5.20;;;4.60;;
2404;SDS011;1213;43.206;27.922;2022-10-31T11:56:42;6.63;;;4.30;;
2404;SDS011;1213;43.206;27.922;2022-10-31T11:59:18;10.43;;;5.93;;
2404;SDS011;1213;43.206;27.922;2022-10-31T12:01:46;5.27;;;4.20;;
2404;SDS011;1213;43.206;27.922;2022-10-31T12:04:12;5.47;;;4.00;;
2404;SDS011;1213;43.206;27.922;2022-10-31T12:06:44;3.53;;;3.23;;
2404;SDS011;1213;43.206;27.922;2022-10-31T12:09:25;5.93;;;4.20;;
2404;SDS011;1213;43.206;27.922;2022-10-31T12:17:02;9.50;;;4.37;;
2404;SDS011;1213;43.206;27.922;2022-10-31T12:19:39;4.70;;;4.03;;
2404;SDS011;1213;43.206;27.922;2022-10-31T12:22:29;4.83;;;3.93;;
2404;SDS011;1213;43.206;27.922;2022-10-31T12:25:03;6.17;;;3.93;;
2404;SDS011;1213;43.206;27.922;2022-10-31T12:30:13;4.47;;;3.87;;
2404;SDS011;1213;43.206;27.922;2022-10-31T12:43:25;4.20;;;3.70;;
2404;SDS011;1213;43.206;27.922;2022-10-31T12:45:57;5.57;;;3.63;;
2404;SDS011;1213;43.206;27.922;2022-10-31T12:53:44;5.23;;;3.73;;
2404;SDS011;1213;43.206;27.922;2022-10-31T12:58:56;8.10;;;4.77;;
2404;SDS011;1213;43.206;27.922;2022-10-31T13:01:26;7.30;;;3.83;;
2404;SDS011;1213;43.206;27.922;2022-10-31T13:06:24;5.37;;;3.80;;
2404;SDS011;1213;43.206;27.922;2022-10-31T13:08:54;4.80;;;3.47;;
2404;SDS011;1213;43.206;27.922;2022-10-31T13:11:23;5.27;;;3.97;;
2404;SDS011;1213;43.206;27.922;2022-10-31T13:16:19;6.10;;;3.33;;
2404;SDS011;1213;43.206;27.922;2022-10-31T13:21:18;6.63;;;4.60;;
2404;SDS011;1213;43.206;27.922;2022-10-31T13:23:44;4.47;;;3.33;;
2404;SDS011;1213;43.206;27.922;2022-10-31T13:26:15;4.97;;;3.53;;
2404;SDS011;1213;43.206;27.922;2022-10-31T13:31:10;3.80;;;3.50;;
2404;SDS011;1213;43.206;27.922;2022-10-31T13:33:38;7.67;;;3.80;;
2404;SDS011;1213;43.206;27.922;2022-10-31T13:45:59;7.23;;;5.00;;
2404;SDS011;1213;43.206;27.922;2022-10-31T13:50:59;4.90;;;3.80;;
2404;SDS011;1213;43.206;27.922;2022-10-31T13:56:31;3.60;;;3.30;;
2404;SDS011;1213;43.206;27.922;2022-10-31T13:58:58;12.03;;;5.10;;
2404;SDS011;1213;43.206;27.922;2022-10-31T14:01:24;7.00;;;4.00;;
2404;SDS011;1213;43.206;27.922;2022-10-31T14:04:00;4.57;;;3.50;;
2404;SDS011;1213;43.206;27.922;2022-10-31T14:06:43;4.27;;;3.87;;
2404;SDS011;1213;43.206;27.922;2022-10-31T14:09:51;10.60;;;4.00;;
2404;SDS011;1213;43.206;27.922;2022-10-31T14:12:06;4.03;;;3.53;;
2404;SDS011;1213;43.206;27.922;2022-10-31T14:14:33;32.07;;;22.37;;
2404;SDS011;1213;43.206;27.922;2022-10-31T14:17:00;9.50;;;6.10;;
2404;SDS011;1213;43.206;27.922;2022-10-31T14:19:25;5.13;;;3.47;;
2404;SDS011;1213;43.206;27.922;2022-10-31T14:21:51;5.40;;;4.20;;
2404;SDS011;1213;43.206;27.922;2022-10-31T14:26:52;6.67;;;3.83;;
2404;SDS011;1213;43.206;27.922;2022-10-31T14:32:06;5.97;;;4.20;;
2404;SDS011;1213;43.206;27.922;2022-10-31T14:34:33;6.90;;;3.43;;
2404;SDS011;1213;43.206;27.922;2022-10-31T14:42:06;9.37;;;4.30;;
2404;SDS011;1213;43.206;27.922;2022-10-31T14:44:47;11.00;;;4.10;;
2404;SDS011;1213;43.206;27.922;2022-10-31T14:49:50;6.40;;;4.60;;
2404;SDS011;1213;43.206;27.922;2022-10-31T14:52:20;4.33;;;3.83;;
2404;SDS011;1213;43.206;27.922;2022-10-31T14:54:49;7.80;;;5.30;;
2404;SDS011;1213;43.206;27.922;2022-10-31T14:57:36;5.40;;;4.07;;
2404;SDS011;1213;43.206;27.922;2022-10-31T15:00:03;6.27;;;4.80;;
2404;SDS011;1213;43.206;27.922;2022-10-31T15:02:32;5.90;;;4.00;;
2404;SDS011;1213;43.206;27.922;2022-10-31T15:05:11;6.03;;;4.63;;
2404;SDS011;1213;43.206;27.922;2022-10-31T15:07:47;6.50;;;3.80;;
2404;SDS011;1213;43.206;27.922;2022-10-31T15:10:46;4.57;;;3.33;;
2404;SDS011;1213;43.206;27.922;2022-10-31T15:13:08;8.00;;;5.70;;
2404;SDS011;1213;43.206;27.922;2022-10-31T15:15:34;7.30;;;4.67;;
2404;SDS011;1213;43.206;27.922;2022-10-31T15:18:00;6.30;;;4.10;;
2404;SDS011;1213;43.206;27.922;2022-10-31T15:20:26;7.80;;;5.00;;
2404;SDS011;1213;43.206;27.922;2022-10-31T15:22:53;7.17;;;4.10;;
2404;SDS011;1213;43.206;27.922;2022-10-31T15:25:20;8.10;;;4.70;;
2404;SDS011;1213;43.206;27.922;2022-10-31T15:27:46;14.20;;;4.80;;
2404;SDS011;1213;43.206;27.922;2022-10-31T15:30:19;5.67;;;3.40;;
2404;SDS011;1213;43.206;27.922;2022-10-31T15:32:45;10.07;;;5.13;;
2404;SDS011;1213;43.206;27.922;2022-10-31T15:35:14;10.47;;;4.70;;
2404;SDS011;1213;43.206;27.922;2022-10-31T15:37:44;7.33;;;4.70;;
2404;SDS011;1213;43.206;27.922;2022-10-31T15:40:14;7.70;;;5.10;;
2404;SDS011;1213;43.206;27.922;2022-10-31T15:42:39;5.63;;;4.03;;
2404;SDS011;1213;43.206;27.922;2022-10-31T15:45:16;5.03;;;4.53;;
2404;SDS011;1213;43.206;27.922;2022-10-31T15:47:45;8.43;;;5.13;;
2404;SDS011;1213;43.206;27.922;2022-10-31T15:50:19;7.80;;;5.90;;
2404;SDS011;1213;43.206;27.922;2022-10-31T15:52:46;9.97;;;4.70;;
2404;SDS011;1213;43.206;27.922;2022-10-31T15:55:16;6.70;;;4.50;;
2404;SDS011;1213;43.206;27.922;2022-10-31T15:57:44;6.20;;;4.17;;
2404;SDS011;1213;43.206;27.922;2022-10-31T16:00:25;7.40;;;5.20;;
2404;SDS011;1213;43.206;27.922;2022-10-31T16:05:43;5.10;;;4.50;;
2404;SDS011;1213;43.206;27.922;2022-10-31T16:10:52;6.70;;;4.23;;
2404;SDS011;1213;43.206;27.922;2022-10-31T16:13:19;7.73;;;5.40;;
2404;SDS011;1213;43.206;27.922;2022-10-31T16:15:49;6.07;;;5.03;;
2404;SDS011;1213;43.206;27.922;2022-10-31T16:18:17;8.17;;;4.97;;
2404;SDS011;1213;43.206;27.922;2022-10-31T16:20:47;7.30;;;5.20;;
2404;SDS011;1213;43.206;27.922;2022-10-31T16:23:15;6.70;;;5.63;;
2404;SDS011;1213;43.206;27.922;2022-10-31T16:25:41;9.03;;;6.00;;
2404;SDS011;1213;43.206;27.922;2022-10-31T16:28:13;23.10;;;15.63;;
2404;SDS011;1213;43.206;27.922;2022-10-31T16:30:40;10.27;;;6.40;;
2404;SDS011;1213;43.206;27.922;2022-10-31T16:33:23;21.90;;;7.30;;
2404;SDS011;1213;43.206;27.922;2022-10-31T16:35:48;15.57;;;7.30;;
2404;SDS011;1213;43.206;27.922;2022-10-31T16:38:14;12.00;;;7.43;;
2404;SDS011;1213;43.206;27.922;2022-10-31T16:40:39;9.80;;;6.00;;
2404;SDS011;1213;43.206;27.922;2022-10-31T16:43:05;13.60;;;6.90;;
2404;SDS011;1213;43.206;27.922;2022-10-31T16:45:34;10.60;;;7.20;;
2404;SDS011;1213;43.206;27.922;2022-10-31T16:48:06;9.70;;;7.40;;
2404;SDS011;1213;43.206;27.922;2022-10-31T16:50:31;17.87;;;8.00;;
2404;SDS011;1213;43.206;27.922;2022-10-31T16:52:57;19.73;;;8.40;;
2404;SDS011;1213;43.206;27.922;2022-10-31T16:55:22;12.00;;;7.00;;
2404;SDS011;1213;43.206;27.922;2022-10-31T16:57:49;12.73;;;7.87;;
2404;SDS011;1213;43.206;27.922;2022-10-31T17:00:16;8.33;;;6.80;;
2404;SDS011;1213;43.206;27.922;2022-10-31T17:02:42;12.20;;;8.13;;
2404;SDS011;1213;43.206;27.922;2022-10-31T17:05:13;14.03;;;8.83;;
2404;SDS011;1213;43.206;27.922;2022-10-31T17:07:39;22.20;;;12.67;;
2404;SDS011;1213;43.206;27.922;2022-10-31T17:10:05;15.57;;;10.93;;
2404;SDS011;1213;43.206;27.922;2022-10-31T17:12:30;13.23;;;8.17;;
2404;SDS011;1213;43.206;27.922;2022-10-31T17:14:56;12.23;;;7.60;;
2404;SDS011;1213;43.206;27.922;2022-10-31T17:17:21;8.53;;;5.80;;
2404;SDS011;1213;43.206;27.922;2022-10-31T17:19:46;7.40;;;6.10;;
2404;SDS011;1213;43.206;27.922;2022-10-31T17:22:12;7.97;;;5.00;;
2404;SDS011;1213;43.206;27.922;2022-10-31T17:24:38;7.23;;;5.67;;